sensor_id;sensor_type;location;lat;lon;timestamp;pressure;altitude;pressure_sealevel;temperature;humidity
58979;BME280;44763;50.464;30.612;2023-06-26T00:01:26;99782.84;;;18.66;100.00
58979;BME280;44763;50.464;30.612;2023-06-26T00:03:31;99781.00;;;18.65;100.00
58979;BME280;44763;50.464;30.612;2023-06-26T00:05:34;99778.59;;;18.62;100.00
58979;BME280;44763;50.464;30.612;2023-06-26T00:07:36;99774.94;;;18.58;100.00
58979;BME280;44763;50.464;30.612;2023-06-26T00:09:37;99776.25;;;18.54;100.00
58979;BME280;44763;50.464;30.612;2023-06-26T00:11:39;99773.44;;;18.54;100.00
58979;BME280;44763;50.464;30.612;2023-06-26T00:13:40;99772.23;;;18.51;100.00
58979;BME280;44763;50.464;30.612;2023-06-26T00:15:43;99768.80;;;18.44;100.00
58979;BME280;44763;50.464;30.612;2023-06-26T00:17:44;99770.13;;;18.46;100.00
58979;BME280;44763;50.464;30.612;2023-06-26T00:19:47;99767.50;;;18.54;100.00
58979;BME280;44763;50.464;30.612;2023-06-26T00:21:48;99765.68;;;18.55;100.00
58979;BME280;44763;50.464;30.612;2023-06-26T00:23:51;99762.98;;;18.45;100.00
58979;BME280;44763;50.464;30.612;2023-06-26T00:25:53;99763.37;;;18.39;100.00
58979;BME280;44763;50.464;30.612;2023-06-26T00:27:54;99763.79;;;18.34;100.00
58979;BME280;44763;50.464;30.612;2023-06-26T00:29:56;99765.35;;;18.28;100.00
58979;BME280;44763;50.464;30.612;2023-06-26T00:31:58;99765.27;;;18.26;100.00
58979;BME280;44763;50.464;30.612;2023-06-26T00:34:00;99764.11;;;18.28;100.00
58979;BME280;44763;50.464;30.612;2023-06-26T00:36:02;99761.27;;;18.25;100.00
58979;BME280;44763;50.464;30.612;2023-06-26T00:38:04;99763.71;;;18.22;100.00
58979;BME280;44763;50.464;30.612;2023-06-26T00:40:07;99763.95;;;18.24;100.00
58979;BME280;44763;50.464;30.612;2023-06-26T00:42:08;99763.94;;;18.23;100.00
58979;BME280;44763;50.464;30.612;2023-06-26T00:44:11;99767.60;;;18.27;100.00
58979;BME280;44763;50.464;30.612;2023-06-26T00:46:13;99765.02;;;18.34;100.00
58979;BME280;44763;50.464;30.612;2023-06-26T00:48:15;99759.98;;;18.39;100.00
58979;BME280;44763;50.464;30.612;2023-06-26T00:50:17;99757.98;;;18.40;100.00
58979;BME280;44763;50.464;30.612;2023-06-26T00:52:19;99760.17;;;18.44;100.00
58979;BME280;44763;50.464;30.612;2023-06-26T00:54:22;99765.01;;;18.46;100.00
58979;BME280;44763;50.464;30.612;2023-06-26T00:56:23;99761.42;;;18.50;100.00
58979;BME280;44763;50.464;30.612;2023-06-26T00:58:25;99756.20;;;18.57;100.00
58979;BME280;44763;50.464;30.612;2023-06-26T01:00:27;99756.20;;;18.58;100.00
58979;BME280;44763;50.464;30.612;2023-06-26T01:02:31;99759.40;;;18.59;100.00
58979;BME280;44763;50.464;30.612;2023-06-26T01:04:36;99761.95;;;18.77;100.00
58979;BME280;44763;50.464;30.612;2023-06-26T01:06:40;99761.74;;;18.89;100.00
58979;BME280;44763;50.464;30.612;2023-06-26T01:08:42;99757.67;;;18.93;100.00
58979;BME280;44763;50.464;30.612;2023-06-26T01:10:45;99752.86;;;18.99;100.00
58979;BME280;44763;50.464;30.612;2023-06-26T01:12:47;99753.66;;;19.03;100.00
58979;BME280;44763;50.464;30.612;2023-06-26T01:14:49;99754.06;;;19.00;100.00
58979;BME280;44763;50.464;30.612;2023-06-26T01:16:51;99752.98;;;18.93;100.00
58979;BME280;44763;50.464;30.612;2023-06-26T01:18:54;99752.09;;;18.90;100.00
58979;BME280;44763;50.464;30.612;2023-06-26T01:20:57;99754.64;;;18.84;100.00
58979;BME280;44763;50.464;30.612;2023-06-26T01:23:12;99755.13;;;18.75;100.00
58979;BME280;44763;50.464;30.612;2023-06-26T01:27:41;99760.63;;;18.52;100.00
58979;BME280;44763;50.464;30.612;2023-06-26T01:29:44;99762.65;;;18.48;100.00
58979;BME280;44763;50.464;30.612;2023-06-26T01:31:47;99766.87;;;18.50;100.00
58979;BME280;44763;50.464;30.612;2023-06-26T01:33:51;99767.46;;;18.49;100.00
58979;BME280;44763;50.464;30.612;2023-06-26T01:35:54;99764.91;;;18.43;100.00
58979;BME280;44763;50.464;30.612;2023-06-26T01:38:16;99759.88;;;18.36;100.00
58979;BME280;44763;50.464;30.612;2023-06-26T01:40:18;99756.20;;;18.30;100.00
58979;BME280;44763;50.464;30.612;2023-06-26T01:42:20;99758.79;;;18.24;100.00
58979;BME280;44763;50.464;30.612;2023-06-26T01:44:26;99754.83;;;18.23;100.00
58979;BME280;44763;50.464;30.612;2023-06-26T01:46:51;99753.54;;;18.19;100.00
58979;BME280;44763;50.464;30.612;2023-06-26T01:51:30;99743.69;;;18.06;100.00
58979;BME280;44763;50.464;30.612;2023-06-26T01:53:37;99739.89;;;18.00;100.00
58979;BME280;44763;50.464;30.612;2023-06-26T01:55:51;99739.05;;;17.92;100.00
58979;BME280;44763;50.464;30.612;2023-06-26T01:57:56;99739.73;;;17.89;100.00
58979;BME280;44763;50.464;30.612;2023-06-26T02:00:00;99738.70;;;17.89;100.00
58979;BME280;44763;50.464;30.612;2023-06-26T02:02:02;99737.38;;;17.88;100.00
58979;BME280;44763;50.464;30.612;2023-06-26T02:04:04;99738.48;;;17.86;100.00
58979;BME280;44763;50.464;30.612;2023-06-26T02:06:05;99739.43;;;17.85;100.00
58979;BME280;44763;50.464;30.612;2023-06-26T02:08:10;99739.40;;;17.83;100.00
58979;BME280;44763;50.464;30.612;2023-06-26T02:10:12;99733.88;;;17.84;100.00
58979;BME280;44763;50.464;30.612;2023-06-26T02:12:13;99732.63;;;17.84;100.00
58979;BME280;44763;50.464;30.612;2023-06-26T02:14:15;99731.27;;;17.84;100.00
58979;BME280;44763;50.464;30.612;2023-06-26T02:16:17;99729.86;;;17.86;100.00
58979;BME280;44763;50.464;30.612;2023-06-26T02:18:19;99729.10;;;17.83;100.00
58979;BME280;44763;50.464;30.612;2023-06-26T02:20:23;99730.67;;;17.75;100.00
58979;BME280;44763;50.464;30.612;2023-06-26T02:22:25;99729.79;;;17.69;100.00
58979;BME280;44763;50.464;30.612;2023-06-26T02:24:27;99730.95;;;17.67;100.00
58979;BME280;44763;50.464;30.612;2023-06-26T02:26:32;99729.98;;;17.72;100.00
58979;BME280;44763;50.464;30.612;2023-06-26T02:28:33;99733.27;;;17.71;100.00
58979;BME280;44763;50.464;30.612;2023-06-26T02:30:36;99731.30;;;17.70;100.00
58979;BME280;44763;50.464;30.612;2023-06-26T02:32:38;99732.11;;;17.70;100.00
58979;BME280;44763;50.464;30.612;2023-06-26T02:34:40;99728.46;;;17.71;100.00
58979;BME280;44763;50.464;30.612;2023-06-26T02:36:41;99722.34;;;17.78;100.00
58979;BME280;44763;50.464;30.612;2023-06-26T02:38:43;99725.52;;;17.83;100.00
58979;BME280;44763;50.464;30.612;2023-06-26T02:40:45;99724.27;;;17.84;100.00
58979;BME280;44763;50.464;30.612;2023-06-26T02:42:47;99723.42;;;17.85;100.00
58979;BME280;44763;50.464;30.612;2023-06-26T02:44:48;99727.81;;;17.83;100.00
58979;BME280;44763;50.464;30.612;2023-06-26T02:46:50;99726.08;;;17.79;100.00
58979;BME280;44763;50.464;30.612;2023-06-26T02:48:52;99721.27;;;17.69;100.00
58979;BME280;44763;50.464;30.612;2023-06-26T02:50:54;99720.13;;;17.65;100.00
58979;BME280;44763;50.464;30.612;2023-06-26T02:53:01;99717.86;;;17.77;100.00
58979;BME280;44763;50.464;30.612;2023-06-26T02:55:03;99715.85;;;17.87;100.00
58979;BME280;44763;50.464;30.612;2023-06-26T02:57:06;99715.72;;;17.94;100.00
58979;BME280;44763;50.464;30.612;2023-06-26T02:59:08;99714.60;;;18.04;100.00
58979;BME280;44763;50.464;30.612;2023-06-26T03:01:10;99712.38;;;18.15;100.00
58979;BME280;44763;50.464;30.612;2023-06-26T03:03:12;99712.80;;;18.12;100.00
58979;BME280;44763;50.464;30.612;2023-06-26T03:05:14;99710.67;;;18.01;100.00
58979;BME280;44763;50.464;30.612;2023-06-26T03:07:18;99711.30;;;17.99;100.00
58979;BME280;44763;50.464;30.612;2023-06-26T03:09:20;99705.96;;;18.08;100.00
58979;BME280;44763;50.464;30.612;2023-06-26T03:11:22;99702.33;;;18.10;100.00
58979;BME280;44763;50.464;30.612;2023-06-26T03:13:24;99707.81;;;18.05;100.00
58979;BME280;44763;50.464;30.612;2023-06-26T03:15:27;99707.41;;;17.98;100.00
58979;BME280;44763;50.464;30.612;2023-06-26T03:17:28;99708.52;;;17.92;100.00
58979;BME280;44763;50.464;30.612;2023-06-26T03:19:34;99710.70;;;17.89;100.00
58979;BME280;44763;50.464;30.612;2023-06-26T03:21:52;99707.06;;;17.87;100.00
58979;BME280;44763;50.464;30.612;2023-06-26T03:23:54;99706.73;;;17.83;100.00
58979;BME280;44763;50.464;30.612;2023-06-26T03:25:56;99708.11;;;17.81;100.00
58979;BME280;44763;50.464;30.612;2023-06-26T03:28:03;99711.16;;;17.76;100.00
58979;BME280;44763;50.464;30.612;2023-06-26T03:30:05;99702.36;;;17.74;100.00
58979;BME280;44763;50.464;30.612;2023-06-26T03:32:08;99708.10;;;17.77;100.00
58979;BME280;44763;50.464;30.612;2023-06-26T03:34:10;99704.46;;;17.75;100.00
58979;BME280;44763;50.464;30.612;2023-06-26T03:36:12;99704.84;;;17.71;100.00
58979;BME280;44763;50.464;30.612;2023-06-26T03:38:14;99703.77;;;17.66;100.00
58979;BME280;44763;50.464;30.612;2023-06-26T03:40:17;99705.30;;;17.73;100.00
58979;BME280;44763;50.464;30.612;2023-06-26T03:42:19;99706.56;;;17.79;100.00
58979;BME280;44763;50.464;30.612;2023-06-26T03:44:22;99703.98;;;17.86;100.00
58979;BME280;44763;50.464;30.612;2023-06-26T03:46:24;99699.86;;;17.88;100.00
58979;BME280;44763;50.464;30.612;2023-06-26T03:48:25;99697.09;;;17.92;100.00
58979;BME280;44763;50.464;30.612;2023-06-26T03:50:27;99693.14;;;17.95;100.00
58979;BME280;44763;50.464;30.612;2023-06-26T03:52:29;99693.10;;;18.02;100.00
58979;BME280;44763;50.464;30.612;2023-06-26T03:54:32;99690.21;;;18.04;100.00
58979;BME280;44763;50.464;30.612;2023-06-26T03:56:35;99690.50;;;18.00;100.00
58979;BME280;44763;50.464;30.612;2023-06-26T03:58:39;99689.98;;;17.98;100.00
58979;BME280;44763;50.464;30.612;2023-06-26T04:00:41;99690.16;;;17.99;100.00
58979;BME280;44763;50.464;30.612;2023-06-26T04:02:42;99689.41;;;18.00;100.00
58979;BME280;44763;50.464;30.612;2023-06-26T04:04:45;99691.11;;;18.02;100.00
58979;BME280;44763;50.464;30.612;2023-06-26T04:06:46;99688.33;;;18.04;100.00
58979;BME280;44763;50.464;30.612;2023-06-26T04:08:48;99687.09;;;18.03;100.00
58979;BME280;44763;50.464;30.612;2023-06-26T04:10:50;99689.05;;;18.00;100.00
58979;BME280;44763;50.464;30.612;2023-06-26T04:12:53;99691.52;;;17.95;100.00
58979;BME280;44763;50.464;30.612;2023-06-26T04:14:54;99689.09;;;17.90;100.00
58979;BME280;44763;50.464;30.612;2023-06-26T04:16:56;99689.10;;;17.86;100.00
58979;BME280;44763;50.464;30.612;2023-06-26T04:18:59;99688.84;;;17.84;100.00
58979;BME280;44763;50.464;30.612;2023-06-26T04:23:07;99686.33;;;17.94;100.00
58979;BME280;44763;50.464;30.612;2023-06-26T04:25:09;99686.36;;;18.01;100.00
58979;BME280;44763;50.464;30.612;2023-06-26T04:27:13;99686.79;;;18.16;100.00
58979;BME280;44763;50.464;30.612;2023-06-26T04:29:15;99683.23;;;18.64;100.00
58979;BME280;44763;50.464;30.612;2023-06-26T04:31:17;99679.17;;;19.04;100.00
58979;BME280;44763;50.464;30.612;2023-06-26T04:33:19;99677.90;;;19.37;100.00
58979;BME280;44763;50.464;30.612;2023-06-26T04:35:20;99681.46;;;19.60;100.00
58979;BME280;44763;50.464;30.612;2023-06-26T04:37:22;99683.94;;;19.69;100.00
58979;BME280;44763;50.464;30.612;2023-06-26T04:39:25;99681.88;;;19.70;100.00
58979;BME280;44763;50.464;30.612;2023-06-26T04:41:27;99677.89;;;19.70;100.00
58979;BME280;44763;50.464;30.612;2023-06-26T04:43:29;99675.36;;;19.61;100.00
58979;BME280;44763;50.464;30.612;2023-06-26T04:45:30;99670.14;;;19.43;100.00
58979;BME280;44763;50.464;30.612;2023-06-26T04:47:32;99672.58;;;19.32;100.00
58979;BME280;44763;50.464;30.612;2023-06-26T04:49:34;99670.59;;;19.15;100.00
58979;BME280;44763;50.464;30.612;2023-06-26T04:51:39;99668.23;;;19.02;100.00
58979;BME280;44763;50.464;30.612;2023-06-26T04:53:42;99670.27;;;18.90;100.00
58979;BME280;44763;50.464;30.612;2023-06-26T04:55:43;99663.70;;;19.02;100.00
58979;BME280;44763;50.464;30.612;2023-06-26T04:57:45;99659.34;;;19.33;100.00
58979;BME280;44763;50.464;30.612;2023-06-26T04:59:47;99660.95;;;19.79;100.00
58979;BME280;44763;50.464;30.612;2023-06-26T05:01:49;99658.52;;;20.26;100.00
58979;BME280;44763;50.464;30.612;2023-06-26T05:03:50;99660.12;;;20.81;100.00
58979;BME280;44763;50.464;30.612;2023-06-26T05:05:52;99656.80;;;21.39;100.00
58979;BME280;44763;50.464;30.612;2023-06-26T05:07:55;99655.71;;;21.71;100.00
58979;BME280;44763;50.464;30.612;2023-06-26T05:09:57;99660.89;;;21.77;100.00
58979;BME280;44763;50.464;30.612;2023-06-26T05:11:59;99657.54;;;21.63;100.00
58979;BME280;44763;50.464;30.612;2023-06-26T05:14:00;99655.77;;;21.36;100.00
58979;BME280;44763;50.464;30.612;2023-06-26T05:16:02;99656.35;;;21.01;100.00
58979;BME280;44763;50.464;30.612;2023-06-26T05:18:04;99655.79;;;20.65;100.00
58979;BME280;44763;50.464;30.612;2023-06-26T05:20:07;99656.09;;;20.28;100.00
58979;BME280;44763;50.464;30.612;2023-06-26T05:22:10;99650.40;;;19.93;100.00
58979;BME280;44763;50.464;30.612;2023-06-26T05:24:15;99646.70;;;19.73;100.00
58979;BME280;44763;50.464;30.612;2023-06-26T05:26:17;99644.55;;;19.61;100.00
58979;BME280;44763;50.464;30.612;2023-06-26T05:28:19;99631.60;;;19.41;100.00
58979;BME280;44763;50.464;30.612;2023-06-26T05:30:22;99636.60;;;19.34;100.00
58979;BME280;44763;50.464;30.612;2023-06-26T05:32:24;99633.05;;;19.27;100.00
58979;BME280;44763;50.464;30.612;2023-06-26T05:34:26;99640.66;;;19.14;100.00
58979;BME280;44763;50.464;30.612;2023-06-26T05:36:33;99641.16;;;19.09;100.00
58979;BME280;44763;50.464;30.612;2023-06-26T05:38:35;99647.98;;;19.10;100.00
58979;BME280;44763;50.464;30.612;2023-06-26T05:40:37;99638.89;;;19.17;100.00
58979;BME280;44763;50.464;30.612;2023-06-26T05:42:42;99640.62;;;19.29;100.00
58979;BME280;44763;50.464;30.612;2023-06-26T05:44:44;99622.89;;;19.16;100.00
58979;BME280;44763;50.464;30.612;2023-06-26T05:46:46;99635.94;;;19.22;100.00
58979;BME280;44763;50.464;30.612;2023-06-26T05:48:48;99645.06;;;19.30;100.00
58979;BME280;44763;50.464;30.612;2023-06-26T05:50:49;99643.70;;;19.28;100.00
58979;BME280;44763;50.464;30.612;2023-06-26T05:52:52;99644.48;;;19.33;100.00
58979;BME280;44763;50.464;30.612;2023-06-26T05:54:54;99640.07;;;19.25;100.00
58979;BME280;44763;50.464;30.612;2023-06-26T05:56:57;99637.35;;;19.21;100.00
58979;BME280;44763;50.464;30.612;2023-06-26T05:59:00;99644.88;;;19.14;100.00
58979;BME280;44763;50.464;30.612;2023-06-26T06:01:03;99649.70;;;19.07;100.00
58979;BME280;44763;50.464;30.612;2023-06-26T06:03:05;99645.56;;;18.94;100.00
58979;BME280;44763;50.464;30.612;2023-06-26T06:05:07;99642.31;;;18.86;100.00
58979;BME280;44763;50.464;30.612;2023-06-26T06:07:09;99643.30;;;18.88;100.00
58979;BME280;44763;50.464;30.612;2023-06-26T06:09:11;99642.68;;;18.76;100.00
58979;BME280;44763;50.464;30.612;2023-06-26T06:11:12;99645.08;;;18.59;100.00
58979;BME280;44763;50.464;30.612;2023-06-26T06:13:14;99645.95;;;18.53;100.00
58979;BME280;44763;50.464;30.612;2023-06-26T06:15:16;99644.34;;;18.54;100.00
58979;BME280;44763;50.464;30.612;2023-06-26T06:17:18;99637.43;;;18.48;100.00
58979;BME280;44763;50.464;30.612;2023-06-26T06:19:21;99644.67;;;18.63;100.00
58979;BME280;44763;50.464;30.612;2023-06-26T06:21:22;99645.78;;;18.67;100.00
58979;BME280;44763;50.464;30.612;2023-06-26T06:23:24;99646.50;;;18.55;100.00
58979;BME280;44763;50.464;30.612;2023-06-26T06:25:26;99631.41;;;18.52;100.00
58979;BME280;44763;50.464;30.612;2023-06-26T06:27:28;99644.85;;;18.59;100.00
58979;BME280;44763;50.464;30.612;2023-06-26T06:29:29;99641.98;;;18.59;100.00
58979;BME280;44763;50.464;30.612;2023-06-26T06:31:31;99641.78;;;18.58;100.00
58979;BME280;44763;50.464;30.612;2023-06-26T06:33:33;99646.15;;;18.56;100.00
58979;BME280;44763;50.464;30.612;2023-06-26T06:35:35;99645.44;;;18.43;100.00
58979;BME280;44763;50.464;30.612;2023-06-26T06:37:37;99645.35;;;18.33;100.00
58979;BME280;44763;50.464;30.612;2023-06-26T06:39:40;99645.18;;;18.26;100.00
58979;BME280;44763;50.464;30.612;2023-06-26T06:41:42;99652.64;;;18.29;100.00
58979;BME280;44763;50.464;30.612;2023-06-26T06:46:23;99650.23;;;18.18;100.00
58979;BME280;44763;50.464;30.612;2023-06-26T06:48:25;99651.56;;;18.28;100.00
58979;BME280;44763;50.464;30.612;2023-06-26T06:50:27;99648.42;;;18.37;100.00
58979;BME280;44763;50.464;30.612;2023-06-26T06:52:28;99644.20;;;18.45;100.00
58979;BME280;44763;50.464;30.612;2023-06-26T06:54:30;99642.33;;;18.53;100.00
58979;BME280;44763;50.464;30.612;2023-06-26T06:56:32;99639.90;;;18.60;100.00
58979;BME280;44763;50.464;30.612;2023-06-26T06:58:33;99643.65;;;18.63;100.00
58979;BME280;44763;50.464;30.612;2023-06-26T07:00:37;99633.12;;;18.55;100.00
58979;BME280;44763;50.464;30.612;2023-06-26T07:02:43;99649.23;;;18.45;100.00
58979;BME280;44763;50.464;30.612;2023-06-26T07:04:46;99645.61;;;18.50;100.00
58979;BME280;44763;50.464;30.612;2023-06-26T07:06:48;99649.69;;;18.50;100.00
58979;BME280;44763;50.464;30.612;2023-06-26T07:08:50;99645.09;;;18.48;100.00
58979;BME280;44763;50.464;30.612;2023-06-26T07:10:52;99644.50;;;18.48;100.00
58979;BME280;44763;50.464;30.612;2023-06-26T07:12:54;99647.03;;;18.47;100.00
58979;BME280;44763;50.464;30.612;2023-06-26T07:14:56;99638.64;;;18.44;100.00
58979;BME280;44763;50.464;30.612;2023-06-26T07:16:58;99637.00;;;18.47;100.00
58979;BME280;44763;50.464;30.612;2023-06-26T07:19:00;99630.83;;;18.58;100.00
58979;BME280;44763;50.464;30.612;2023-06-26T07:21:02;99633.60;;;18.70;100.00
58979;BME280;44763;50.464;30.612;2023-06-26T07:23:03;99626.70;;;18.83;100.00
58979;BME280;44763;50.464;30.612;2023-06-26T07:25:05;99625.08;;;18.97;100.00
58979;BME280;44763;50.464;30.612;2023-06-26T07:27:10;99625.06;;;19.07;100.00
58979;BME280;44763;50.464;30.612;2023-06-26T07:29:12;99629.19;;;19.11;100.00
58979;BME280;44763;50.464;30.612;2023-06-26T07:31:13;99631.52;;;19.09;100.00
58979;BME280;44763;50.464;30.612;2023-06-26T07:33:18;99630.63;;;19.05;100.00
58979;BME280;44763;50.464;30.612;2023-06-26T07:35:22;99634.95;;;18.98;100.00
58979;BME280;44763;50.464;30.612;2023-06-26T07:37:24;99637.41;;;18.95;100.00
58979;BME280;44763;50.464;30.612;2023-06-26T07:39:25;99639.64;;;18.95;100.00
58979;BME280;44763;50.464;30.612;2023-06-26T07:41:27;99638.66;;;18.97;100.00
58979;BME280;44763;50.464;30.612;2023-06-26T07:43:30;99635.30;;;18.93;100.00
58979;BME280;44763;50.464;30.612;2023-06-26T07:45:32;99636.78;;;18.89;100.00
58979;BME280;44763;50.464;30.612;2023-06-26T07:47:34;99634.84;;;18.87;100.00
58979;BME280;44763;50.464;30.612;2023-06-26T07:49:35;99633.65;;;18.88;100.00
58979;BME280;44763;50.464;30.612;2023-06-26T07:51:37;99631.08;;;18.92;100.00
58979;BME280;44763;50.464;30.612;2023-06-26T07:53:39;99622.70;;;18.92;100.00
58979;BME280;44763;50.464;30.612;2023-06-26T07:55:40;99630.17;;;19.03;100.00
58979;BME280;44763;50.464;30.612;2023-06-26T07:57:42;99623.98;;;19.08;100.00
58979;BME280;44763;50.464;30.612;2023-06-26T07:59:43;99625.00;;;19.16;100.00
58979;BME280;44763;50.464;30.612;2023-06-26T08:01:45;99620.86;;;19.20;100.00
58979;BME280;44763;50.464;30.612;2023-06-26T08:03:47;99618.67;;;19.26;100.00
58979;BME280;44763;50.464;30.612;2023-06-26T08:05:49;99620.55;;;19.35;100.00
58979;BME280;44763;50.464;30.612;2023-06-26T08:07:50;99623.37;;;19.38;100.00
58979;BME280;44763;50.464;30.612;2023-06-26T08:09:52;99623.00;;;19.38;100.00
58979;BME280;44763;50.464;30.612;2023-06-26T08:11:54;99625.88;;;19.41;100.00
58979;BME280;44763;50.464;30.612;2023-06-26T08:13:55;99624.46;;;19.41;100.00
58979;BME280;44763;50.464;30.612;2023-06-26T08:15:57;99626.84;;;19.41;100.00
58979;BME280;44763;50.464;30.612;2023-06-26T08:17:58;99627.11;;;19.40;100.00
58979;BME280;44763;50.464;30.612;2023-06-26T08:20:00;99626.83;;;19.35;100.00
58979;BME280;44763;50.464;30.612;2023-06-26T08:22:02;99626.48;;;19.35;100.00
58979;BME280;44763;50.464;30.612;2023-06-26T08:24:03;99626.06;;;19.35;100.00
58979;BME280;44763;50.464;30.612;2023-06-26T08:26:05;99629.52;;;19.34;100.00
58979;BME280;44763;50.464;30.612;2023-06-26T08:28:06;99631.34;;;19.32;100.00
58979;BME280;44763;50.464;30.612;2023-06-26T08:30:08;99637.05;;;19.17;100.00
58979;BME280;44763;50.464;30.612;2023-06-26T08:32:10;99639.08;;;19.10;100.00
58979;BME280;44763;50.464;30.612;2023-06-26T08:34:12;99637.59;;;19.05;100.00
58979;BME280;44763;50.464;30.612;2023-06-26T08:36:13;99633.77;;;18.97;100.00
58979;BME280;44763;50.464;30.612;2023-06-26T08:38:15;99635.40;;;18.92;100.00
58979;BME280;44763;50.464;30.612;2023-06-26T08:40:22;99636.65;;;18.85;100.00
58979;BME280;44763;50.464;30.612;2023-06-26T08:42:23;99639.33;;;18.88;100.00
58979;BME280;44763;50.464;30.612;2023-06-26T08:44:25;99636.61;;;18.87;100.00
58979;BME280;44763;50.464;30.612;2023-06-26T08:46:27;99636.40;;;18.88;100.00
58979;BME280;44763;50.464;30.612;2023-06-26T08:48:29;99636.38;;;18.84;100.00
58979;BME280;44763;50.464;30.612;2023-06-26T08:50:34;99638.45;;;18.81;100.00
58979;BME280;44763;50.464;30.612;2023-06-26T08:52:37;99645.71;;;18.78;100.00
58979;BME280;44763;50.464;30.612;2023-06-26T08:54:46;99646.63;;;18.79;100.00
58979;BME280;44763;50.464;30.612;2023-06-26T08:56:49;99640.80;;;18.77;100.00
58979;BME280;44763;50.464;30.612;2023-06-26T08:58:51;99644.67;;;18.70;100.00
58979;BME280;44763;50.464;30.612;2023-06-26T09:00:53;99644.70;;;18.67;100.00
58979;BME280;44763;50.464;30.612;2023-06-26T09:02:56;99643.21;;;18.70;100.00
58979;BME280;44763;50.464;30.612;2023-06-26T09:04:57;99646.11;;;18.81;100.00
58979;BME280;44763;50.464;30.612;2023-06-26T09:06:59;99652.44;;;18.96;100.00
58979;BME280;44763;50.464;30.612;2023-06-26T09:09:01;99646.73;;;19.07;100.00
58979;BME280;44763;50.464;30.612;2023-06-26T09:11:04;99647.27;;;19.15;100.00
58979;BME280;44763;50.464;30.612;2023-06-26T09:13:05;99643.48;;;19.16;100.00
58979;BME280;44763;50.464;30.612;2023-06-26T09:15:21;99644.00;;;19.12;100.00
58979;BME280;44763;50.464;30.612;2023-06-26T09:17:29;99645.70;;;19.09;100.00
58979;BME280;44763;50.464;30.612;2023-06-26T09:19:31;99648.69;;;19.10;100.00
58979;BME280;44763;50.464;30.612;2023-06-26T09:21:35;99655.42;;;19.08;100.00
58979;BME280;44763;50.464;30.612;2023-06-26T09:23:37;99652.75;;;19.04;100.00
58979;BME280;44763;50.464;30.612;2023-06-26T09:25:40;99651.35;;;18.95;100.00
58979;BME280;44763;50.464;30.612;2023-06-26T09:27:43;99656.41;;;18.91;100.00
58979;BME280;44763;50.464;30.612;2023-06-26T09:29:45;99654.45;;;18.83;100.00
58979;BME280;44763;50.464;30.612;2023-06-26T09:31:48;99666.61;;;18.79;100.00
58979;BME280;44763;50.464;30.612;2023-06-26T09:33:55;99668.46;;;18.74;100.00
58979;BME280;44763;50.464;30.612;2023-06-26T09:35:57;99672.84;;;18.61;100.00
58979;BME280;44763;50.464;30.612;2023-06-26T09:37:58;99674.84;;;18.55;100.00
58979;BME280;44763;50.464;30.612;2023-06-26T09:40:00;99679.73;;;18.48;100.00
58979;BME280;44763;50.464;30.612;2023-06-26T09:42:02;99676.39;;;18.47;100.00
58979;BME280;44763;50.464;30.612;2023-06-26T09:44:09;99671.05;;;18.52;100.00
58979;BME280;44763;50.464;30.612;2023-06-26T09:46:15;99668.58;;;18.55;100.00
58979;BME280;44763;50.464;30.612;2023-06-26T09:48:17;99667.35;;;18.63;100.00
58979;BME280;44763;50.464;30.612;2023-06-26T09:50:22;99662.02;;;18.72;100.00
58979;BME280;44763;50.464;30.612;2023-06-26T09:52:26;99665.38;;;18.79;100.00
58979;BME280;44763;50.464;30.612;2023-06-26T09:54:28;99667.14;;;18.81;100.00
58979;BME280;44763;50.464;30.612;2023-06-26T09:56:32;99667.06;;;18.85;100.00
58979;BME280;44763;50.464;30.612;2023-06-26T09:58:34;99666.73;;;18.94;100.00
58979;BME280;44763;50.464;30.612;2023-06-26T10:00:36;99667.93;;;19.02;100.00
58979;BME280;44763;50.464;30.612;2023-06-26T10:02:38;99663.63;;;19.13;100.00
58979;BME280;44763;50.464;30.612;2023-06-26T10:04:40;99667.94;;;19.21;100.00
58979;BME280;44763;50.464;30.612;2023-06-26T10:06:46;99661.47;;;19.25;100.00
58979;BME280;44763;50.464;30.612;2023-06-26T10:08:49;99659.75;;;19.27;100.00
58979;BME280;44763;50.464;30.612;2023-06-26T10:10:51;99661.59;;;19.28;100.00
58979;BME280;44763;50.464;30.612;2023-06-26T10:12:54;99669.21;;;19.27;100.00
58979;BME280;44763;50.464;30.612;2023-06-26T10:14:59;99676.74;;;19.21;100.00
58979;BME280;44763;50.464;30.612;2023-06-26T10:17:04;99678.06;;;19.11;100.00
58979;BME280;44763;50.464;30.612;2023-06-26T10:19:07;99689.55;;;18.89;100.00
58979;BME280;44763;50.464;30.612;2023-06-26T10:21:09;99699.60;;;18.65;100.00
58979;BME280;44763;50.464;30.612;2023-06-26T10:23:13;99698.34;;;18.45;100.00
58979;BME280;44763;50.464;30.612;2023-06-26T10:25:19;99700.18;;;18.33;100.00
58979;BME280;44763;50.464;30.612;2023-06-26T10:27:21;99701.27;;;18.24;100.00
58979;BME280;44763;50.464;30.612;2023-06-26T10:29:24;99705.81;;;18.20;100.00
58979;BME280;44763;50.464;30.612;2023-06-26T10:31:27;99704.69;;;18.27;100.00
58979;BME280;44763;50.464;30.612;2023-06-26T10:33:32;99709.12;;;18.38;100.00
58979;BME280;44763;50.464;30.612;2023-06-26T10:35:34;99692.02;;;18.43;100.00
58979;BME280;44763;50.464;30.612;2023-06-26T10:37:43;99705.64;;;18.66;100.00
58979;BME280;44763;50.464;30.612;2023-06-26T10:39:49;99709.65;;;18.79;100.00
58979;BME280;44763;50.464;30.612;2023-06-26T10:41:51;99708.30;;;18.90;100.00
58979;BME280;44763;50.464;30.612;2023-06-26T10:44:11;99710.33;;;19.03;100.00